Terminal Aerodrome Forecast
Issued by NWS

Home | Current Version | Previous Version | Text Only | Print | Product List | Glossary On
Versions: 1 2 3 4 5 6 7 8 9 10 11 12 13 14 15
000
FTUS44 KJAN 031700
TAFGTR
TAF
KGTR 031720Z 0318/0418 17005KT 3SM BR OVC005
     FM032100 18008KT 6SM BR OVC007
     FM040700 18010KT 4SM BR OVC003
     FM041700 21010KT P6SM VCSH BKN007 OVC010=

USA.gov is the U.S. government's official web portal to all federal, state and local government web resources and services.